Time;durP1;ratioP1;P1;durP2;ratioP2;P2;SDS_P1;SDS_P2;PMS_P1;PMS_P2;Temp;Humidity;BMP_temperature;BMP_pressure;BME280_temperature;BME280_humidity;BME280_pressure;Samples;Min_cycle;Max_cycle;Signal;HPM_P1;HPM_P2
2023/04/12 04:57:00;;;;;;;23.50;12.40;;;;;;;10.42;100.00;99261.05;107408;1289;549312;-59
2023/04/12 04:59:27;;;;;;;24.10;12.50;;;;;;;13.27;100.00;99244.98;107792;1289;21997;-59
2023/04/12 05:01:53;;;;;;;24.10;12.90;;;;;;;13.82;100.00;99240.75;107424;1295;21993;-64
2023/04/12 05:04:19;;;;;;;28.60;14.10;;;;;;;14.30;100.00;99239.35;107458;1295;22021;-59
2023/04/12 05:06:46;;;;;;;25.90;13.70;;;;;;;14.58;100.00;99239.26;107464;1295;21992;-63
2023/04/12 05:09:12;;;;;;;19.80;11.80;;;;;;;14.81;99.55;99236.65;107436;1292;173476;-64
2023/04/12 05:11:38;;;;;;;17.30;10.10;;;;;;;14.99;98.64;99230.46;107909;1293;21990;-64
2023/04/12 05:14:07;;;;;;;15.80;9.00;;;;;;;15.18;98.00;99232.40;107727;1292;21991;-64
2023/04/12 05:16:33;;;;;;;13.50;9.30;;;;;;;15.33;97.31;99224.92;107741;1292;22408;-64
2023/04/12 05:19:04;;;;;;;15.70;8.20;;;;;;;15.49;97.06;99219.34;107709;1292;21998;-64
2023/04/12 05:21:32;;;;;;;13.20;7.20;;;;;;;15.66;96.61;99219.36;107714;1290;23660;-60
2023/04/12 05:23:58;;;;;;;10.20;7.20;;;;;;;15.81;95.89;99211.73;107792;1292;22582;-59
2023/04/12 05:26:25;;;;;;;11.70;7.20;;;;;;;15.94;95.63;99202.20;107786;1294;21990;-59
2023/04/12 05:28:51;;;;;;;11.20;7.60;;;;;;;16.06;94.53;99199.95;107796;1294;22010;-59
2023/04/12 05:31:17;;;;;;;12.10;6.80;;;;;;;16.13;93.70;99197.09;107775;1293;21994;-64
2023/04/12 05:33:43;;;;;;;12.90;7.90;;;;;;;16.18;92.43;99195.80;107866;1292;22004;-64
2023/04/12 05:36:10;;;;;;;11.90;7.20;;;;;;;16.17;91.94;99190.86;108037;1292;21991;-59
2023/04/12 05:38:39;;;;;;;9.90;6.60;;;;;;;16.24;92.61;99184.46;107922;1292;22001;-64
2023/04/12 05:41:05;;;;;;;10.20;7.30;;;;;;;16.36;93.51;99178.51;107870;1292;21994;-65
2023/04/12 05:43:32;;;;;;;10.20;7.00;;;;;;;16.53;93.55;99173.33;107808;1292;22175;-65
2023/04/12 05:45:59;;;;;;;9.70;6.50;;;;;;;16.67;93.04;99169.70;107798;1292;21991;-59
2023/04/12 05:48:27;;;;;;;8.50;6.30;;;;;;;16.82;92.97;99172.42;107753;1292;21995;-59
2023/04/12 05:50:53;;;;;;;8.60;6.10;;;;;;;16.95;93.07;99174.00;107773;1292;21988;-59
2023/04/12 05:53:20;;;;;;;8.70;6.20;;;;;;;17.11;93.01;99174.70;107780;1292;21995;-61
2023/04/12 05:55:46;;;;;;;12.90;9.50;;;;;;;17.22;92.46;99171.70;107829;1292;21998;-59
2023/04/12 05:58:12;;;;;;;11.60;7.40;;;;;;;17.31;92.69;99172.46;107801;1293;21993;-64
2023/04/12 06:00:40;;;;;;;12.70;8.30;;;;;;;17.31;89.59;99175.13;107763;1293;22448;-63
2023/04/12 06:03:09;;;;;;;9.90;7.40;;;;;;;17.30;89.59;99175.73;107820;1293;21994;-60
2023/04/12 06:05:35;;;;;;;10.20;7.50;;;;;;;17.38;90.93;99182.71;107710;1293;22005;-64
2023/04/12 06:08:00;;;;;;;9.70;7.20;;;;;;;17.47;91.57;99187.64;107521;1293;21990;-64
2023/04/12 06:10:26;;;;;;;8.10;5.90;;;;;;;17.49;89.97;99181.99;107753;1293;22006;-59
2023/04/12 06:12:52;;;;;;;9.00;6.20;;;;;;;17.50;88.42;99175.58;107803;1293;22002;-64
2023/04/12 06:15:21;;;;;;;9.20;6.20;;;;;;;17.42;86.53;99176.73;107827;1293;22010;-64
2023/04/12 06:17:49;;;;;;;9.10;5.80;;;;;;;17.34;87.12;99177.59;107795;1293;22000;-59
2023/04/12 06:20:18;;;;;;;7.40;5.20;;;;;;;17.33;87.88;99175.16;107736;1293;21989;-59
2023/04/12 06:22:44;;;;;;;9.30;6.30;;;;;;;17.35;87.59;99173.98;107746;1293;21998;-59
2023/04/12 06:25:09;;;;;;;8.50;5.30;;;;;;;17.43;89.13;99177.45;107968;1293;21995;-65
2023/04/12 06:27:35;;;;;;;8.80;5.40;;;;;;;17.62;91.41;99176.62;107936;1293;21993;-65
2023/04/12 06:30:02;;;;;;;8.10;5.50;;;;;;;17.91;93.81;99177.00;107741;1292;22096;-59
2023/04/12 06:32:28;;;;;;;8.30;5.40;;;;;;;18.23;95.42;99175.05;107814;1293;22459;-64
2023/04/12 06:34:56;;;;;;;6.70;4.30;;;;;;;18.51;94.86;99187.13;107692;1293;22014;-59
2023/04/12 06:37:23;;;;;;;9.10;5.00;;;;;;;18.66;92.84;99189.70;107737;1293;22005;-58
2023/04/12 06:39:48;;;;;;;5.70;4.20;;;;;;;18.79;92.11;99191.55;107920;1293;22002;-59
2023/04/12 06:42:14;;;;;;;8.30;5.20;;;;;;;18.90;89.67;99192.11;107891;1289;21999;-59
2023/04/12 06:44:41;;;;;;;9.20;4.80;;;;;;;18.90;87.79;99188.15;107916;1290;22055;-65
2023/04/12 06:47:08;;;;;;;8.90;5.40;;;;;;;18.86;85.21;99187.70;107104;1293;1002544;-59
2023/04/12 06:49:34;;;;;;;7.30;5.10;;;;;;;18.84;87.61;99186.40;107716;1290;21996;-58
2023/04/12 06:52:00;;;;;;;8.80;4.80;;;;;;;19.01;89.94;99180.71;107714;1293;22000;-59
2023/04/12 06:54:26;;;;;;;9.10;5.70;;;;;;;19.18;89.97;99177.27;107710;1292;21998;-65
2023/04/12 06:56:51;;;;;;;6.60;4.40;;;;;;;19.33;89.58;99192.10;107746;1293;21998;-58
2023/04/12 06:59:17;;;;;;;6.60;4.20;;;;;;;19.43;88.02;99201.58;107740;1293;22027;-58
2023/04/12 07:01:44;;;;;;;9.30;4.90;;;;;;;19.42;85.54;99198.46;107600;1292;21992;-58
2023/04/12 07:04:10;;;;;;;7.00;4.80;;;;;;;19.35;84.18;99188.23;107835;1292;21993;-59
2023/04/12 07:06:36;;;;;;;7.60;4.70;;;;;;;19.24;82.12;99191.64;107847;1292;21998;-58
2023/04/12 07:09:04;;;;;;;8.70;4.90;;;;;;;19.01;80.27;99190.48;107929;1292;21989;-58
2023/04/12 07:11:30;;;;;;;6.10;4.30;;;;;;;18.91;83.23;99185.63;107950;1292;21992;-60
2023/04/12 07:14:00;;;;;;;7.80;4.60;;;;;;;19.01;85.33;99178.55;107942;1292;22014;-65
2023/04/12 07:16:29;;;;;;;7.50;4.30;;;;;;;19.17;88.36;99171.80;107862;1292;21989;-59
2023/04/12 07:18:55;;;;;;;6.00;4.10;;;;;;;19.43;89.75;99179.16;107922;1292;21990;-65
2023/04/12 07:21:21;;;;;;;5.50;4.00;;;;;;;19.71;91.00;99179.35;107829;1292;21992;-65
2023/04/12 07:23:50;;;;;;;8.20;3.90;;;;;;;19.96;88.26;99177.00;107780;1291;22029;-58
2023/04/12 07:26:17;;;;;;;9.70;4.20;;;;;;;20.09;87.22;99173.92;107868;1291;22002;-59
2023/04/12 07:28:42;;;;;;;6.80;4.30;;;;;;;20.19;85.95;99169.61;107894;1291;21993;-66
2023/04/12 07:31:08;;;;;;;8.00;4.80;;;;;;;20.29;85.84;99172.69;107822;1290;21995;-59
2023/04/12 07:33:35;;;;;;;6.60;4.50;;;;;;;20.45;87.50;99181.15;107825;1287;21997;-65
2023/04/12 07:36:01;;;;;;;6.10;3.70;;;;;;;20.69;88.73;99183.88;107895;1290;21958;-60
2023/04/12 07:38:27;;;;;;;5.70;3.30;;;;;;;20.91;87.64;99183.94;107923;1290;22017;-65
2023/04/12 07:40:54;;;;;;;5.60;4.00;;;;;;;21.02;85.94;99184.52;107808;1291;24063;-65
2023/04/12 07:43:20;;;;;;;6.00;4.30;;;;;;;21.08;85.62;99184.74;107862;1291;22032;-59
2023/04/12 07:45:46;;;;;;;6.10;4.30;;;;;;;21.18;85.69;99191.15;107779;1291;22045;-58
2023/04/12 07:48:14;;;;;;;6.40;4.20;;;;;;;21.25;84.44;99191.52;107799;1290;22475;-58
2023/04/12 08:45:44;;;;;;;7.10;2.10;;;;;;;19.81;98.14;99182.88;107716;1283;548322;-65
2023/04/12 08:48:10;;;;;;;4.10;1.60;;;;;;;22.51;88.17;99168.52;108128;1287;22030;-61
2023/04/12 08:50:36;;;;;;;3.50;1.50;;;;;;;22.99;84.75;99172.15;107820;1288;22026;-62
2023/04/12 08:53:02;;;;;;;3.60;1.50;;;;;;;23.28;82.27;99173.75;108090;1288;21990;-64
2023/04/12 08:55:27;;;;;;;3.30;1.30;;;;;;;23.37;75.36;99165.46;108138;1288;23132;-64
2023/04/12 08:57:55;;;;;;;5.00;1.60;;;;;;;23.22;67.46;99162.08;108031;1285;174322;-60
2023/04/12 09:00:21;;;;;;;3.00;1.40;;;;;;;22.98;66.19;99166.52;108152;1286;21983;-65
2023/04/12 09:02:51;;;;;;;3.00;1.30;;;;;;;22.82;68.18;99165.92;108119;1285;21984;-60
2023/04/12 09:05:17;;;;;;;2.70;1.50;;;;;;;22.78;68.99;99161.55;108121;1284;23712;-66
2023/04/12 09:07:44;;;;;;;4.00;1.40;;;;;;;22.83;69.29;99157.06;108224;1285;22020;-63
2023/04/12 09:10:09;;;;;;;3.30;1.20;;;;;;;23.03;68.77;99158.02;108178;1285;21981;-65
2023/04/12 09:12:44;;;;;;;2.80;1.00;;;;;;;23.18;65.73;99158.25;108167;1285;21995;-61
2023/04/12 09:15:14;;;;;;;1.90;0.90;;;;;;;23.23;66.77;99157.14;108171;1284;22008;-61
2023/04/12 09:17:40;;;;;;;3.70;0.90;;;;;;;23.47;69.70;99159.23;108214;1284;22026;-60
2023/04/12 09:20:15;;;;;;;1.60;0.80;;;;;;;23.85;69.75;99151.36;108171;1285;21996;-64
2023/04/12 09:22:45;;;;;;;2.70;1.00;;;;;;;24.13;68.06;99147.25;108185;1283;23692;-62
2023/04/12 09:25:11;;;;;;;2.80;1.10;;;;;;;24.45;68.10;99148.05;108128;1282;21989;-65
2023/04/12 09:27:47;;;;;;;2.30;1.00;;;;;;;24.98;67.58;99144.67;108077;1285;22011;-65
2023/04/12 09:30:17;;;;;;;1.10;0.90;;;;;;;25.32;65.70;99144.79;108045;1285;24122;-65
2023/04/12 09:33:12;;;;;;;3.70;0.90;;;;;;;25.16;62.52;99139.27;108054;1285;22084;-66
2023/04/12 09:35:38;;;;;;;1.50;0.90;;;;;;;24.98;57.67;99140.59;108177;1285;21986;-65
2023/04/12 09:38:08;;;;;;;3.70;1.00;;;;;;;24.96;60.75;99138.77;108153;1285;21993;-65
2023/04/12 09:40:37;;;;;;;2.40;1.00;;;;;;;24.93;57.95;99133.17;108233;1285;23597;-62
2023/04/12 09:43:02;;;;;;;2.80;0.90;;;;;;;24.63;53.84;99132.42;108107;1285;21982;-62
2023/04/12 09:45:30;;;;;;;3.60;0.90;;;;;;;24.25;55.30;99135.08;108136;1285;21994;-64
2023/04/12 09:47:56;;;;;;;2.70;1.00;;;;;;;24.24;59.30;99137.85;108175;1285;21995;-65
2023/04/12 09:50:34;;;;;;;2.50;0.90;;;;;;;24.52;62.62;99139.52;108214;1285;21980;-65
2023/04/12 09:53:03;;;;;;;3.80;1.00;;;;;;;24.98;63.53;99143.31;108176;1285;21989;-65
2023/04/12 09:55:32;;;;;;;2.40;1.30;;;;;;;25.39;60.11;99143.46;108124;1286;21991;-64
2023/04/12 09:58:02;;;;;;;2.80;1.40;;;;;;;25.45;55.32;99142.75;108157;1286;21990;-62
2023/04/12 10:00:32;;;;;;;1.80;1.10;;;;;;;25.19;50.63;99144.79;108129;1285;21984;-64
2023/04/12 10:02:59;;;;;;;2.60;1.40;;;;;;;24.63;47.79;99144.41;108204;1276;22019;-63
2023/04/12 10:05:24;;;;;;;2.80;1.10;;;;;;;24.23;50.89;99143.49;108140;1285;21984;-65
2023/04/12 10:07:50;;;;;;;3.00;1.30;;;;;;;24.09;51.36;99145.28;108084;1285;21987;-65
2023/04/12 10:10:17;;;;;;;2.10;1.20;;;;;;;24.01;50.38;99145.50;108141;1285;22265;-65
2023/04/12 10:12:45;;;;;;;4.20;1.50;;;;;;;23.94;50.19;99144.98;108153;1285;22000;-65
2023/04/12 10:15:16;;;;;;;2.30;1.30;;;;;;;24.04;51.25;99144.88;108167;1286;22018;-65
2023/04/12 10:17:45;;;;;;;2.30;1.30;;;;;;;24.23;52.49;99146.27;108245;1285;21986;-62
2023/04/12 10:20:12;;;;;;;4.10;1.80;;;;;;;24.39;52.96;99148.39;108172;1285;22113;-65
2023/04/12 10:22:42;;;;;;;4.20;1.90;;;;;;;24.60;53.75;99144.91;108171;1285;21986;-65
2023/04/12 10:25:22;;;;;;;3.40;1.60;;;;;;;24.86;54.32;99141.88;108149;1286;21997;-62
2023/04/12 10:27:48;;;;;;;2.80;1.70;;;;;;;25.08;51.75;99139.14;108141;1285;22489;-65
2023/04/12 10:30:28;;;;;;;3.00;1.70;;;;;;;25.10;50.54;99135.58;108135;1285;21991;-65
2023/04/12 10:33:07;;;;;;;3.20;1.60;;;;;;;24.94;49.28;99132.33;108200;1285;21989;-66
2023/04/12 10:36:09;;;;;;;2.70;1.60;;;;;;;24.79;49.01;99133.70;108140;1285;22117;-66
2023/04/12 10:38:50;;;;;;;4.00;1.70;;;;;;;24.58;49.26;99132.87;108134;1285;21992;-65
2023/04/12 10:41:17;;;;;;;3.00;1.70;;;;;;;24.53;51.31;99131.39;108148;1285;22020;-62
2023/04/12 10:43:47;;;;;;;2.60;1.60;;;;;;;24.38;47.33;99129.69;108115;1284;22005;-65
2023/04/12 10:46:37;;;;;;;2.80;1.70;;;;;;;24.05;47.63;99132.41;108161;1281;21984;-64
2023/04/12 10:49:08;;;;;;;2.90;1.60;;;;;;;23.82;49.37;99143.38;108212;1285;22009;-65
2023/04/12 10:51:34;;;;;;;2.60;1.90;;;;;;;23.61;47.12;99153.95;108231;1285;21986;-65
2023/04/12 10:54:09;;;;;;;2.80;1.60;;;;;;;23.38;48.98;99150.38;108194;1285;21989;-61
2023/04/12 10:56:37;;;;;;;3.60;1.70;;;;;;;23.36;50.18;99147.52;108207;1285;23644;-62
2023/04/12 10:59:07;;;;;;;3.40;2.20;;;;;;;23.31;47.87;99142.86;108162;1285;21987;-65
2023/04/12 11:01:33;;;;;;;3.90;2.10;;;;;;;23.15;48.16;99143.86;108164;1285;21988;-62
2023/04/12 11:04:08;;;;;;;3.60;2.50;;;;;;;23.01;49.71;99144.26;108162;1285;21991;-65
2023/04/12 11:06:48;;;;;;;5.50;2.20;;;;;;;23.03;49.91;99138.16;108141;1285;21983;-61
2023/04/12 11:09:21;;;;;;;4.60;2.40;;;;;;;23.11;51.50;99129.52;108154;1285;21985;-64
2023/04/12 11:11:48;;;;;;;4.40;1.80;;;;;;;23.29;51.52;99127.48;108199;1285;21991;-65
2023/04/12 11:14:15;;;;;;;3.70;2.00;;;;;;;23.31;48.45;99128.58;108268;1285;22022;-64
2023/04/12 11:17:08;;;;;;;3.50;2.10;;;;;;;23.09;48.05;99127.33;108136;1285;22036;-64
2023/04/12 11:19:36;;;;;;;4.00;2.40;;;;;;;22.93;48.86;99133.69;108142;1285;21992;-61
2023/04/12 11:22:03;;;;;;;5.30;2.70;;;;;;;22.83;48.54;99137.87;108184;1285;21995;-65
2023/04/12 11:24:29;;;;;;;4.20;2.10;;;;;;;22.71;48.17;99133.33;108170;1285;21996;-61
2023/04/12 11:26:56;;;;;;;6.00;2.60;;;;;;;22.57;48.39;99131.29;108093;1285;22636;-65
2023/04/12 11:29:25;;;;;;;4.10;2.30;;;;;;;22.50;48.49;99131.34;108076;1285;21986;-65
2023/04/12 11:31:51;;;;;;;5.20;2.10;;;;;;;22.44;48.71;99129.09;108108;1285;21992;-61
2023/04/12 11:34:17;;;;;;;3.70;2.20;;;;;;;22.36;47.53;99132.79;108127;1285;21990;-62
2023/04/12 11:36:44;;;;;;;3.20;2.20;;;;;;;22.29;48.76;99135.64;108138;1285;21983;-61
2023/04/12 11:39:11;;;;;;;3.60;2.10;;;;;;;22.31;49.34;99144.98;108160;1285;21989;-65
2023/04/12 11:41:37;;;;;;;3.10;2.20;;;;;;;22.35;48.49;99148.59;108212;1285;22270;-62
2023/04/12 11:44:03;;;;;;;4.00;2.10;;;;;;;22.36;48.28;99149.17;108452;1285;21988;-64
2023/04/12 11:46:32;;;;;;;3.10;2.30;;;;;;;22.38;48.92;99149.04;108351;1285;21991;-65
2023/04/12 11:48:58;;;;;;;5.90;2.60;;;;;;;22.50;50.48;99146.31;108293;1285;21988;-62
2023/04/12 11:51:25;;;;;;;4.70;2.60;;;;;;;22.77;51.44;99142.31;108129;1285;21994;-61
2023/04/12 11:53:52;;;;;;;6.20;2.40;;;;;;;23.03;50.83;99133.90;108107;1285;23732;-62
2023/04/12 11:56:17;;;;;;;3.40;2.00;;;;;;;23.12;49.83;99135.35;108103;1285;21983;-64
2023/04/12 11:58:46;;;;;;;5.50;2.40;;;;;;;23.13;49.06;99132.59;108093;1285;21984;-65
2023/04/12 12:01:13;;;;;;;4.10;2.60;;;;;;;23.12;48.85;99128.91;108183;1285;21996;-62
2023/04/12 12:03:39;;;;;;;3.90;2.80;;;;;;;23.09;49.15;99127.52;108130;1285;21988;-65
2023/04/12 12:06:06;;;;;;;4.70;2.40;;;;;;;23.06;48.50;99131.20;108133;1284;21982;-65
2023/04/12 12:08:32;;;;;;;3.40;2.30;;;;;;;22.98;48.77;99132.85;108251;1285;23725;-65
2023/04/12 12:10:59;;;;;;;5.50;2.60;;;;;;;23.12;50.13;99129.77;108124;1285;22005;-64
2023/04/12 12:13:25;;;;;;;4.10;2.30;;;;;;;23.35;48.55;99127.11;108226;1285;22002;-64
2023/04/12 12:15:51;;;;;;;5.00;2.70;;;;;;;23.55;50.62;99122.42;108196;1285;21991;-65
2023/04/12 12:18:17;;;;;;;5.20;2.50;;;;;;;23.87;51.95;99117.89;108162;1285;21991;-65
2023/04/12 12:20:50;;;;;;;4.40;2.30;;;;;;;24.15;49.50;99120.27;108093;1285;21962;-65
2023/04/12 12:23:29;;;;;;;3.80;2.40;;;;;;;24.21;48.52;99121.88;108128;1285;21983;-64
2023/04/12 12:25:58;;;;;;;4.40;2.30;;;;;;;24.05;47.13;99127.73;108147;1285;21987;-65
2023/04/12 12:28:24;;;;;;;4.00;2.30;;;;;;;23.83;47.05;99129.08;108127;1285;21995;-65
2023/04/12 12:31:02;;;;;;;5.30;2.20;;;;;;;23.69;46.35;99133.33;108250;1283;24340;-64
2023/04/12 12:33:36;;;;;;;3.50;2.30;;;;;;;23.56;47.05;99132.88;108248;1285;22101;-63
2023/04/12 12:36:02;;;;;;;4.80;2.60;;;;;;;23.50;47.57;99140.52;108257;1285;22452;-64
2023/04/12 12:38:39;;;;;;;3.80;2.50;;;;;;;23.53;47.65;99136.67;108148;1285;21982;-64
2023/04/12 12:41:14;;;;;;;4.20;2.70;;;;;;;23.64;49.14;99138.45;108096;1285;21991;-64
2023/04/12 12:43:47;;;;;;;4.60;2.90;;;;;;;23.92;50.68;99138.53;108130;1285;21987;-62
2023/04/12 12:46:13;;;;;;;3.80;2.20;;;;;;;24.24;49.48;99133.60;108173;1285;21991;-62
2023/04/12 12:48:45;;;;;;;5.30;2.40;;;;;;;24.36;47.70;99127.88;108163;1286;21981;-64
2023/04/12 12:51:11;;;;;;;5.00;2.50;;;;;;;24.37;47.36;99128.36;108244;1285;22000;-62
2023/04/12 12:53:38;;;;;;;5.80;2.70;;;;;;;24.35;48.89;99129.97;108225;1285;21991;-62
2023/04/12 12:56:05;;;;;;;6.80;3.00;;;;;;;24.49;49.93;99128.16;108156;1286;21995;-62
2023/04/12 12:58:30;;;;;;;4.00;2.80;;;;;;;24.70;50.44;99128.13;108262;1285;21991;-64
2023/04/12 13:00:56;;;;;;;3.70;2.30;;;;;;;24.84;49.44;99126.86;108203;1285;21994;-62
2023/04/12 13:03:23;;;;;;;4.60;2.40;;;;;;;24.82;47.44;99126.82;108114;1285;21994;-63
2023/04/12 13:05:49;;;;;;;4.30;2.50;;;;;;;24.71;47.56;99129.96;108130;1285;21998;-62
2023/04/12 13:08:15;;;;;;;6.00;2.50;;;;;;;24.63;46.37;99130.27;108117;1285;21991;-64
2023/04/12 13:10:40;;;;;;;4.90;2.50;;;;;;;24.46;46.12;99132.23;108144;1285;21975;-62
2023/04/12 13:13:07;;;;;;;4.00;2.40;;;;;;;24.32;46.20;99129.52;108227;1285;21987;-62
2023/04/12 13:15:33;;;;;;;6.20;3.00;;;;;;;24.23;46.62;99130.85;108205;1285;22022;-64
2023/04/12 13:17:59;;;;;;;5.60;2.80;;;;;;;24.30;48.67;99135.02;108076;1286;22165;-62
2023/04/12 13:20:27;;;;;;;5.40;2.90;;;;;;;24.52;48.39;99138.30;108245;1285;21976;-62
2023/04/12 13:22:53;;;;;;;7.20;2.30;;;;;;;24.63;48.04;99135.14;108172;1285;22001;-64
2023/04/12 13:25:19;;;;;;;5.30;2.30;;;;;;;24.63;45.89;99135.81;108136;1285;21986;-62
2023/04/12 13:27:48;;;;;;;4.80;2.80;;;;;;;24.48;44.65;99140.27;108144;1274;22643;-63
2023/04/12 13:30:14;;;;;;;6.90;2.90;;;;;;;24.23;43.85;99144.57;108050;1285;21990;-62
2023/04/12 13:32:45;;;;;;;7.30;3.10;;;;;;;24.05;44.24;99144.25;108393;1286;22045;-65
2023/04/12 13:35:11;;;;;;;5.00;2.50;;;;;;;23.88;44.72;99145.15;108290;1286;21998;-65
2023/04/12 13:37:37;;;;;;;7.50;2.80;;;;;;;23.72;45.12;99144.37;108203;1286;21999;-62
2023/04/12 13:40:05;;;;;;;4.70;2.80;;;;;;;23.55;44.67;99145.33;108124;1286;23715;-62
2023/04/12 13:42:32;;;;;;;6.90;3.20;;;;;;;23.35;44.50;99151.70;108149;1279;21989;-62
2023/04/12 13:44:57;;;;;;;5.90;2.70;;;;;;;23.18;45.13;99154.82;108125;1285;21995;-64
2023/04/12 13:47:23;;;;;;;6.80;2.70;;;;;;;23.09;45.33;99153.64;108150;1285;22002;-64
2023/04/12 13:49:49;;;;;;;4.70;3.10;;;;;;;22.92;44.46;99159.86;108188;1284;21993;-65
2023/04/12 13:52:15;;;;;;;8.60;3.60;;;;;;;22.77;45.59;99160.23;108236;1286;22200;-62
2023/04/12 13:54:42;;;;;;;8.20;3.60;;;;;;;22.58;45.58;99163.02;108184;1286;22008;-61
2023/04/12 13:57:12;;;;;;;8.10;3.70;;;;;;;22.33;45.67;99163.42;108207;1285;21987;-64
2023/04/12 13:59:44;;;;;;;6.60;3.00;;;;;;;22.13;46.05;99164.45;108233;1284;22258;-61
2023/04/12 14:02:09;;;;;;;4.80;2.70;;;;;;;21.90;46.03;99167.48;108209;1285;24916;-64
2023/04/12 14:04:35;;;;;;;6.10;2.70;;;;;;;21.72;46.52;99168.34;108201;1285;21997;-61
2023/04/12 14:07:01;;;;;;;6.90;3.60;;;;;;;21.55;46.65;99166.45;108161;1285;21998;-62
2023/04/12 14:09:34;;;;;;;5.60;3.00;;;;;;;21.38;46.92;99171.31;108240;1284;22018;-62
2023/04/12 14:12:01;;;;;;;4.90;3.10;;;;;;;21.27;47.71;99174.27;108268;1284;21979;-62
2023/04/12 14:14:27;;;;;;;8.40;3.80;;;;;;;21.19;48.07;99173.60;108335;1284;23708;-62
2023/04/12 14:17:00;;;;;;;5.60;3.10;;;;;;;21.05;47.59;99175.22;108345;1284;22018;-64
2023/04/12 14:19:26;;;;;;;7.40;3.40;;;;;;;20.93;48.16;99174.81;108365;1284;21985;-64
2023/04/12 14:21:54;;;;;;;9.40;2.80;;;;;;;20.87;48.47;99178.87;108265;1284;21985;-65
2023/04/12 14:24:20;;;;;;;7.20;3.00;;;;;;;20.78;48.61;99180.21;108234;1284;22031;-65
2023/04/12 14:26:48;;;;;;;7.20;2.80;;;;;;;20.68;48.67;99181.98;108273;1283;21990;-61
2023/04/12 14:29:16;;;;;;;10.40;4.60;;;;;;;20.59;48.65;99183.33;108299;1284;21988;-65
2023/04/12 14:31:45;;;;;;;4.30;2.60;;;;;;;20.57;49.04;99183.69;108313;1284;21987;-62
2023/04/12 14:34:12;;;;;;;7.30;3.80;;;;;;;20.54;49.23;99184.23;108322;1284;21984;-63
2023/04/12 14:36:38;;;;;;;7.20;3.30;;;;;;;20.51;49.44;99187.70;108385;1284;21986;-62
2023/04/12 14:39:03;;;;;;;5.20;2.70;;;;;;;20.48;49.29;99187.51;108331;1284;21988;-62
2023/04/12 14:41:30;;;;;;;8.70;2.90;;;;;;;20.46;49.53;99193.56;108319;1284;21988;-63
2023/04/12 14:43:58;;;;;;;6.10;3.00;;;;;;;20.45;49.35;99196.85;108653;1284;21984;-64
2023/04/12 14:46:24;;;;;;;7.50;2.70;;;;;;;20.36;49.45;99198.88;108434;1284;21980;-62
2023/04/12 14:48:50;;;;;;;7.30;2.40;;;;;;;20.26;49.56;99197.64;108400;1283;21982;-60
2023/04/12 14:51:16;;;;;;;4.40;2.50;;;;;;;20.18;49.82;99198.26;108341;1284;21949;-60
2023/04/12 14:53:42;;;;;;;5.30;3.20;;;;;;;20.12;49.95;99195.66;108567;1284;21985;-61
2023/04/12 14:56:21;;;;;;;7.80;4.70;;;;;;;20.05;49.75;99195.23;108265;1284;21986;-61
2023/04/12 14:58:52;;;;;;;5.70;2.80;;;;;;;20.01;50.36;99193.34;108277;1284;23699;-63
2023/04/12 15:01:19;;;;;;;8.20;2.90;;;;;;;19.98;50.51;99191.06;108291;1281;21991;-64
2023/04/12 15:03:46;;;;;;;5.80;2.50;;;;;;;19.92;50.08;99192.21;108335;1284;21984;-63
2023/04/12 15:06:17;;;;;;;3.00;2.30;;;;;;;19.86;50.17;99196.36;108383;1284;21985;-62
2023/04/12 15:08:44;;;;;;;4.60;2.10;;;;;;;19.80;50.38;99196.38;108336;1284;21985;-63
2023/04/12 15:11:10;;;;;;;5.10;3.00;;;;;;;19.73;50.52;99198.45;108363;1284;21993;-62
2023/04/12 15:13:38;;;;;;;3.70;2.10;;;;;;;19.68;50.62;99197.91;108390;1282;22011;-62
2023/04/12 15:16:08;;;;;;;5.00;2.40;;;;;;;19.63;50.64;99195.59;108261;1284;21945;-61
2023/04/12 15:18:40;;;;;;;5.00;1.90;;;;;;;19.58;50.75;99194.65;108374;1284;21993;-63
2023/04/12 15:21:09;;;;;;;6.30;2.40;;;;;;;19.53;50.99;99196.44;108263;1284;22023;-61
2023/04/12 15:23:38;;;;;;;6.20;2.40;;;;;;;19.50;51.41;99199.35;108204;1284;22942;-63
2023/04/12 15:26:12;;;;;;;5.90;2.30;;;;;;;19.46;51.70;99196.90;108283;1284;23647;-64
2023/04/12 15:28:39;;;;;;;4.70;2.60;;;;;;;19.45;51.57;99195.73;108341;1284;21988;-61
2023/04/12 15:31:10;;;;;;;6.50;3.40;;;;;;;19.43;51.67;99192.46;108308;1284;21982;-63
2023/04/12 15:33:37;;;;;;;5.30;2.80;;;;;;;19.45;52.23;99195.01;108243;1284;22022;-61
2023/04/12 15:36:03;;;;;;;7.70;3.50;;;;;;;19.52;52.48;99198.98;108263;1284;21978;-60
2023/04/12 15:38:39;;;;;;;6.30;4.50;;;;;;;19.54;52.24;99194.41;108376;1284;21983;-64
2023/04/12 15:41:06;;;;;;;8.20;5.40;;;;;;;19.56;52.39;99193.75;108228;1284;21988;-61
2023/04/12 15:43:32;;;;;;;6.70;4.20;;;;;;;19.56;52.31;99197.81;108273;1284;21988;-61
2023/04/12 15:45:57;;;;;;;27.10;11.30;;;;;;;19.60;52.92;99193.48;108251;1284;23093;-60
2023/04/12 15:48:24;;;;;;;22.90;11.40;;;;;;;19.65;52.70;99194.79;108281;1284;21977;-61
2023/04/12 15:50:54;;;;;;;8.30;3.80;;;;;;;19.62;52.57;99191.57;108366;1284;21986;-61
2023/04/12 15:53:22;;;;;;;7.90;4.40;;;;;;;19.48;52.01;99192.17;108265;1284;22029;-63
2023/04/12 15:55:53;;;;;;;5.80;3.30;;;;;;;19.34;52.05;99190.79;108276;1284;23030;-64
2023/04/12 15:58:21;;;;;;;8.30;5.20;;;;;;;19.20;52.07;99193.88;108361;1284;21982;-63
2023/04/12 16:00:48;;;;;;;6.80;3.00;;;;;;;19.10;52.57;99199.67;108307;1284;21979;-61
2023/04/12 16:03:18;;;;;;;6.40;3.30;;;;;;;19.00;52.55;99199.24;108283;1284;21993;-61
2023/04/12 16:05:44;;;;;;;9.60;3.50;;;;;;;18.89;52.28;99203.86;108313;1280;22242;-61
2023/04/12 16:08:16;;;;;;;9.70;3.60;;;;;;;18.76;52.45;99204.53;108275;1284;21993;-63
2023/04/12 16:10:43;;;;;;;9.10;5.30;;;;;;;18.68;52.78;99206.27;108294;1284;21995;-61
2023/04/12 16:13:09;;;;;;;10.40;4.70;;;;;;;18.61;52.88;99207.81;108190;1284;22017;-63
2023/04/12 16:15:34;;;;;;;6.40;3.50;;;;;;;18.47;53.06;99208.71;108257;1284;21982;-62
2023/04/12 16:18:07;;;;;;;4.90;3.00;;;;;;;18.33;53.07;99208.48;108300;1284;24323;-63
2023/04/12 16:20:34;;;;;;;6.70;2.80;;;;;;;18.19;53.06;99208.48;108323;1284;21976;-62
2023/04/12 16:23:00;;;;;;;5.10;2.40;;;;;;;18.06;53.09;99208.59;108267;1284;21994;-62
2023/04/12 16:25:26;;;;;;;4.40;2.20;;;;;;;17.97;53.29;99209.78;108078;1283;21984;-61
2023/04/12 16:27:53;;;;;;;5.40;2.50;;;;;;;17.89;53.63;99214.02;108421;1280;21982;-62
2023/04/12 16:30:21;;;;;;;5.80;2.60;;;;;;;17.83;53.79;99212.06;108435;1284;21992;-63
2023/04/12 16:32:47;;;;;;;17.00;13.60;;;;;;;17.76;54.15;99215.88;108307;1283;22635;-63
2023/04/12 16:35:14;;;;;;;10.00;7.70;;;;;;;17.63;54.65;99216.66;108344;1283;22156;-63
2023/04/12 16:37:42;;;;;;;13.60;7.80;;;;;;;17.54;54.80;99212.05;108201;1284;21991;-62
2023/04/12 16:40:16;;;;;;;37.00;17.00;;;;;;;17.45;55.33;99214.92;108233;1284;22015;-63
2023/04/12 16:42:44;;;;;;;88.10;35.00;;;;;;;17.36;55.36;99214.13;108211;1285;22753;-62
2023/04/12 16:45:13;;;;;;;23.00;10.10;;;;;;;17.34;55.43;99221.74;108314;1280;23709;-62
2023/04/12 16:47:39;;;;;;;17.10;8.70;;;;;;;17.21;57.24;99220.55;108294;1284;23078;-62
2023/04/12 16:50:09;;;;;;;7.50;2.50;;;;;;;17.10;57.19;99223.29;108226;1284;21976;-63
2023/04/12 16:52:36;;;;;;;18.00;7.30;;;;;;;17.00;56.96;99222.81;108225;1284;21988;-63
2023/04/12 16:55:02;;;;;;;6.40;2.60;;;;;;;16.96;57.25;99222.85;108197;1284;21980;-63
2023/04/12 16:57:28;;;;;;;6.00;2.50;;;;;;;16.89;57.26;99226.23;108314;1284;23605;-61
2023/04/12 16:59:54;;;;;;;6.80;3.30;;;;;;;16.88;56.87;99224.34;108297;1284;21987;-64
2023/04/12 17:02:20;;;;;;;11.40;6.40;;;;;;;16.89;56.84;99225.90;108326;1284;21981;-62
2023/04/12 17:04:46;;;;;;;79.60;33.10;;;;;;;16.92;56.82;99226.58;108291;1284;22006;-62
2023/04/12 17:07:12;;;;;;;18.40;7.90;;;;;;;16.93;57.03;99235.40;108078;1284;23325;-62
2023/04/12 17:09:39;;;;;;;7.20;3.00;;;;;;;16.91;57.04;99244.54;108249;1284;21986;-62
2023/04/12 17:12:05;;;;;;;7.70;3.50;;;;;;;16.89;57.42;99245.69;108235;1284;21997;-62
2023/04/12 17:14:31;;;;;;;4.00;1.90;;;;;;;16.82;58.41;99246.47;108250;1284;21981;-62
2023/04/12 17:16:57;;;;;;;5.00;2.70;;;;;;;16.74;58.22;99246.55;108313;1284;21990;-64
2023/04/12 17:19:25;;;;;;;5.00;3.20;;;;;;;16.71;58.28;99251.70;108330;1284;22553;-63